createdAt,value
2022-09-25T00:01:28.250Z,15.73
2022-09-25T00:03:54.798Z,15.70
2022-09-25T00:06:23.730Z,15.67
2022-09-25T00:08:50.776Z,15.63
2022-09-25T00:11:22.476Z,15.61
2022-09-25T00:13:49.720Z,15.58
2022-09-25T00:16:28.806Z,15.56
2022-09-25T00:19:15.612Z,15.54
2022-09-25T00:21:42.466Z,15.51
2022-09-25T00:24:10.680Z,15.50
2022-09-25T00:26:41.604Z,15.48
2022-09-25T00:29:12.711Z,15.45
2022-09-25T00:31:39.084Z,15.43
2022-09-25T00:34:05.925Z,15.41
2022-09-25T00:36:33.424Z,15.39
2022-09-25T00:39:00.179Z,15.34
2022-09-25T00:41:28.418Z,15.32
2022-09-25T00:43:57.475Z,15.29
2022-09-25T00:46:36.491Z,15.25
2022-09-25T00:49:12.735Z,15.24
2022-09-25T00:51:46.345Z,15.21
2022-09-25T00:54:31.459Z,15.17
2022-09-25T00:57:03.313Z,15.15
2022-09-25T00:59:33.376Z,15.10
2022-09-25T01:02:00.066Z,15.09
2022-09-25T01:04:30.912Z,15.06
2022-09-25T01:06:58.181Z,15.03
2022-09-25T01:09:24.596Z,15.01
2022-09-25T01:11:51.338Z,15.00
2022-09-25T01:14:17.859Z,15.00
2022-09-25T01:16:57.696Z,15.00
2022-09-25T01:19:52.800Z,14.96
2022-09-25T01:22:42.241Z,14.98
2022-09-25T01:25:35.975Z,14.97
2022-09-25T01:28:20.138Z,14.95
2022-09-25T01:30:52.932Z,14.94
2022-09-25T01:33:34.169Z,14.92
2022-09-25T01:36:11.693Z,14.90
2022-09-25T01:38:52.025Z,14.89
2022-09-25T01:41:35.575Z,14.87
2022-09-25T01:44:13.527Z,14.85
2022-09-25T01:46:47.586Z,14.85
2022-09-25T01:49:22.467Z,14.81
2022-09-25T01:51:52.222Z,14.78
2022-09-25T01:54:28.034Z,14.76
2022-09-25T01:56:59.827Z,14.74
2022-09-25T01:59:45.188Z,14.70
2022-09-25T02:02:19.143Z,14.70
2022-09-25T02:05:02.172Z,14.69
2022-09-25T02:07:36.182Z,14.69
2022-09-25T02:10:12.911Z,14.69
2022-09-25T02:12:46.414Z,14.68
2022-09-25T02:15:29.566Z,14.67
2022-09-25T02:18:28.476Z,14.67
2022-09-25T02:21:02.644Z,14.65
2022-09-25T02:23:44.955Z,14.63
2022-09-25T02:26:17.975Z,14.62
2022-09-25T02:28:44.330Z,14.59
2022-09-25T02:31:14.388Z,14.59
2022-09-25T02:33:40.945Z,14.56
2022-09-25T02:36:07.647Z,14.53
2022-09-25T02:38:35.603Z,14.50
2022-09-25T02:41:30.033Z,14.49
2022-09-25T02:44:00.954Z,14.46
2022-09-25T02:46:45.537Z,14.45
2022-09-25T02:49:53.245Z,14.40
2022-09-25T02:52:27.868Z,14.35
2022-09-25T02:55:10.853Z,14.32
2022-09-25T02:57:58.374Z,14.27
2022-09-25T03:00:25.101Z,14.20
2022-09-25T03:02:56.313Z,14.15
2022-09-25T03:05:25.048Z,14.10
2022-09-25T03:08:12.087Z,14.02
2022-09-25T03:10:38.479Z,13.95
2022-09-25T03:13:23.002Z,13.89
2022-09-25T03:15:59.459Z,13.83
2022-09-25T03:18:26.802Z,13.77
2022-09-25T03:20:53.221Z,13.69
2022-09-25T03:23:19.674Z,13.64
2022-09-25T03:25:49.956Z,13.57
2022-09-25T03:28:16.820Z,13.53
2022-09-25T03:30:43.301Z,13.49
2022-09-25T03:33:11.878Z,13.43
2022-09-25T03:35:39.619Z,13.38
2022-09-25T03:38:10.465Z,13.32
2022-09-25T03:40:36.892Z,13.29
2022-09-25T03:45:31.400Z,13.17
2022-09-25T03:47:57.718Z,13.13
2022-09-25T03:50:24.098Z,13.09
2022-09-25T03:52:50.432Z,13.04
2022-09-25T03:55:17.253Z,13.01
2022-09-25T03:57:43.597Z,12.97
2022-09-25T04:00:10.530Z,12.92
2022-09-25T04:02:36.954Z,12.89
2022-09-25T04:05:04.103Z,12.84
2022-09-25T04:07:30.491Z,12.80
2022-09-25T04:09:56.814Z,12.73
2022-09-25T04:12:23.153Z,12.70
2022-09-25T04:14:49.478Z,12.65
2022-09-25T04:17:15.848Z,12.62
2022-09-25T04:19:42.180Z,12.56
2022-09-25T04:22:08.568Z,12.54
2022-09-25T04:24:50.055Z,12.50
2022-09-25T04:27:22.088Z,12.46
2022-09-25T04:29:49.547Z,12.41
2022-09-25T04:32:35.728Z,12.37
2022-09-25T04:35:02.813Z,12.33
2022-09-25T04:37:29.246Z,12.29
2022-09-25T04:39:56.863Z,12.25
2022-09-25T04:42:26.686Z,12.22
2022-09-25T04:44:54.535Z,12.18
2022-09-25T04:47:26.875Z,12.15
2022-09-25T04:49:53.194Z,12.10
2022-09-25T04:52:20.004Z,12.06
2022-09-25T04:54:47.563Z,12.02
2022-09-25T04:57:38.754Z,11.99
2022-09-25T05:00:07.006Z,11.94
2022-09-25T05:02:33.462Z,11.88
2022-09-25T05:04:59.920Z,11.83
2022-09-25T05:07:26.345Z,11.78
2022-09-25T05:09:52.670Z,11.74
2022-09-25T05:12:19.970Z,11.69
2022-09-25T05:14:46.743Z,11.66
2022-09-25T05:17:13.199Z,11.62
2022-09-25T05:19:40.230Z,11.59
2022-09-25T05:22:06.620Z,11.55
2022-09-25T05:24:33.059Z,11.52
2022-09-25T05:26:59.484Z,11.48
2022-09-25T05:29:25.823Z,11.45
2022-09-25T05:31:52.229Z,11.41
2022-09-25T05:34:18.677Z,11.39
2022-09-25T05:36:45.193Z,11.35
2022-09-25T05:39:14.477Z,11.33
2022-09-25T05:41:41.415Z,11.30
2022-09-25T05:44:09.793Z,11.28
2022-09-25T05:46:36.972Z,11.27
2022-09-25T05:49:03.924Z,11.25
2022-09-25T05:51:31.276Z,11.23
2022-09-25T05:53:57.832Z,11.20
2022-09-25T05:56:24.714Z,11.19
2022-09-25T05:58:52.823Z,11.19
2022-09-25T06:01:19.750Z,11.17
2022-09-25T06:03:46.454Z,11.18
2022-09-25T06:06:12.783Z,11.18
2022-09-25T06:08:39.317Z,11.18
2022-09-25T06:11:06.673Z,11.20
2022-09-25T06:13:34.456Z,11.20
2022-09-25T06:16:01.622Z,11.23
2022-09-25T06:18:28.121Z,11.24
2022-09-25T06:21:02.985Z,11.28
2022-09-25T06:23:30.324Z,11.30
2022-09-25T06:26:03.986Z,11.36
2022-09-25T06:28:30.985Z,11.39
2022-09-25T06:31:00.693Z,11.47
2022-09-25T06:33:27.138Z,11.50
2022-09-25T06:35:53.477Z,11.55
2022-09-25T06:38:19.864Z,11.61
2022-09-25T06:40:46.247Z,11.68
2022-09-25T06:43:15.783Z,11.74
2022-09-25T06:45:43.249Z,11.79
2022-09-25T06:48:12.994Z,11.86
2022-09-25T06:50:42.610Z,11.93
2022-09-25T06:53:11.140Z,11.99
2022-09-25T06:55:38.390Z,12.04
2022-09-25T06:58:06.383Z,12.11
2022-09-25T07:00:33.230Z,12.18
2022-09-25T07:03:19.060Z,12.25
2022-09-25T07:05:47.932Z,12.33
2022-09-25T07:08:16.769Z,12.38
2022-09-25T07:10:54.205Z,12.47
2022-09-25T07:13:24.487Z,12.52
2022-09-25T07:15:59.067Z,12.62
2022-09-25T07:18:26.408Z,12.68
2022-09-25T07:20:54.209Z,12.76
2022-09-25T07:23:22.312Z,12.84
2022-09-25T07:25:49.582Z,12.92
2022-09-25T07:28:19.001Z,12.99
2022-09-25T07:30:46.659Z,13.06
2022-09-25T07:33:13.123Z,13.14
2022-09-25T07:35:43.030Z,13.21
2022-09-25T07:38:10.704Z,13.29
2022-09-25T07:40:37.538Z,13.37
2022-09-25T07:43:05.530Z,13.45
2022-09-25T07:45:32.591Z,13.54
2022-09-25T07:48:02.937Z,13.61
2022-09-25T07:50:31.649Z,13.72
2022-09-25T07:52:58.693Z,13.81
2022-09-25T07:55:28.903Z,13.91
2022-09-25T07:57:59.372Z,14.00
2022-09-25T08:00:27.472Z,14.08
2022-09-25T08:02:59.492Z,14.19
2022-09-25T08:05:27.268Z,14.29
2022-09-25T08:07:54.451Z,14.39
2022-09-25T08:10:22.059Z,14.50
2022-09-25T08:20:13.799Z,14.93
2022-09-25T08:22:40.167Z,15.02
2022-09-25T08:25:06.871Z,15.09
2022-09-25T08:27:43.241Z,15.18
2022-09-25T08:30:11.108Z,15.27
2022-09-25T08:32:37.536Z,15.33
2022-09-25T08:35:04.956Z,15.42
2022-09-25T08:37:32.085Z,15.48
2022-09-25T08:40:01.428Z,15.54
2022-09-25T08:42:36.278Z,15.60
2022-09-25T08:45:30.906Z,15.66
2022-09-25T08:48:17.400Z,15.70
2022-09-25T08:50:43.662Z,15.80
2022-09-25T08:53:24.312Z,15.86
2022-09-25T08:56:09.692Z,15.91
2022-09-25T08:58:43.167Z,15.99
2022-09-25T09:01:19.722Z,16.09
2022-09-25T09:03:57.381Z,16.18
2022-09-25T09:06:27.063Z,16.29
2022-09-25T09:09:02.136Z,16.40
2022-09-25T09:11:49.763Z,16.53
2022-09-25T09:14:20.460Z,16.63
2022-09-25T09:16:56.043Z,16.76
2022-09-25T09:19:22.391Z,16.86
2022-09-25T09:22:11.092Z,16.98
2022-09-25T09:24:56.179Z,17.08
2022-09-25T09:28:06.983Z,17.19
2022-09-25T09:31:10.794Z,17.29
2022-09-25T09:34:03.950Z,17.40
2022-09-25T09:36:50.703Z,17.52
2022-09-25T09:39:24.728Z,17.67
2022-09-25T09:42:17.984Z,17.81
2022-09-25T09:45:09.095Z,17.94
2022-09-25T09:48:02.402Z,18.07
2022-09-25T09:50:47.216Z,18.17
2022-09-25T09:53:19.919Z,18.21
2022-09-25T09:55:51.003Z,18.21
2022-09-25T09:58:31.369Z,18.23
2022-09-25T10:01:06.971Z,18.22
2022-09-25T10:03:45.687Z,18.24
2022-09-25T10:06:19.143Z,18.27
2022-09-25T10:08:48.256Z,18.30
2022-09-25T10:11:18.378Z,18.39
2022-09-25T10:13:45.616Z,18.46
2022-09-25T10:16:18.018Z,18.56
2022-09-25T10:19:01.125Z,18.65
2022-09-25T10:21:31.791Z,18.77
2022-09-25T10:23:59.147Z,18.86
2022-09-25T10:26:28.642Z,18.94
2022-09-25T10:29:15.879Z,19.01
2022-09-25T10:31:42.451Z,19.03
2022-09-25T10:34:17.730Z,19.06
2022-09-25T10:36:49.817Z,19.05
2022-09-25T10:39:51.312Z,19.06
2022-09-25T10:42:33.076Z,19.11
2022-09-25T10:44:59.511Z,19.12
2022-09-25T10:47:50.217Z,19.13
2022-09-25T10:50:27.161Z,19.11
2022-09-25T10:52:59.069Z,19.08
2022-09-25T10:55:35.456Z,19.03
2022-09-25T10:58:10.897Z,18.99
2022-09-25T11:00:46.379Z,18.93
2022-09-25T11:03:25.455Z,18.89
2022-09-25T11:05:58.168Z,18.89
2022-09-25T11:08:30.105Z,18.93
2022-09-25T11:10:58.789Z,19.02
2022-09-25T11:13:29.032Z,19.11
2022-09-25T11:16:01.291Z,19.18
2022-09-25T11:18:49.768Z,19.24
2022-09-25T11:21:43.081Z,19.27
2022-09-25T11:24:24.985Z,19.28
2022-09-25T11:27:06.508Z,19.26
2022-09-25T11:29:51.003Z,19.26
2022-09-25T11:32:29.283Z,19.23
2022-09-25T11:35:17.537Z,19.19
2022-09-25T11:37:58.538Z,19.14
2022-09-25T11:41:19.412Z,19.09
2022-09-25T11:44:13.328Z,19.03
2022-09-25T11:46:42.479Z,19.01
2022-09-25T11:49:19.750Z,19.02
2022-09-25T11:52:16.348Z,19.06
2022-09-25T11:54:55.070Z,19.13
2022-09-25T11:57:42.752Z,19.23
2022-09-25T12:00:28.535Z,19.33
2022-09-25T12:03:32.134Z,19.43
2022-09-25T12:06:21.653Z,19.49
2022-09-25T12:09:04.091Z,19.54
2022-09-25T12:11:45.679Z,19.55
2022-09-25T12:14:17.542Z,19.56
2022-09-25T12:16:51.988Z,19.57
2022-09-25T12:19:46.195Z,19.59
2022-09-25T12:22:36.783Z,19.62
2022-09-25T12:25:24.949Z,19.66
2022-09-25T12:28:08.054Z,19.74
2022-09-25T12:30:40.682Z,19.81
2022-09-25T12:33:35.263Z,19.90
2022-09-25T12:36:14.772Z,20.04
2022-09-25T12:38:44.996Z,20.16
2022-09-25T12:41:24.661Z,20.30
2022-09-25T12:44:00.310Z,20.43
2022-09-25T12:46:34.223Z,20.55
2022-09-25T12:49:30.102Z,20.67
2022-09-25T12:52:03.367Z,20.74
2022-09-25T12:55:02.347Z,20.78
2022-09-25T12:57:48.162Z,20.82
2022-09-25T13:00:28.812Z,20.86
2022-09-25T13:03:17.227Z,20.87
2022-09-25T13:05:50.505Z,20.85
2022-09-25T13:08:34.161Z,20.82
2022-09-25T13:11:16.347Z,20.77
2022-09-25T13:13:46.702Z,20.73
2022-09-25T13:16:15.934Z,20.66
2022-09-25T13:19:08.938Z,20.61
2022-09-25T13:21:37.350Z,20.53
2022-09-25T13:24:10.210Z,20.43
2022-09-25T13:26:50.432Z,20.31
2022-09-25T13:29:28.188Z,20.18
2022-09-25T13:32:07.843Z,20.07
2022-09-25T13:34:38.559Z,19.96
2022-09-25T13:37:08.992Z,19.90
2022-09-25T13:40:03.677Z,19.87
2022-09-25T13:42:39.019Z,19.86
2022-09-25T13:45:32.102Z,19.87
2022-09-25T13:48:08.786Z,19.89
2022-09-25T13:50:38.833Z,19.92
2022-09-25T13:53:23.402Z,19.94
2022-09-25T13:55:49.679Z,19.94
2022-09-25T13:58:28.404Z,19.97
2022-09-25T14:00:58.663Z,19.98
2022-09-25T14:03:32.103Z,20.00
2022-09-25T14:06:00.720Z,20.00
2022-09-25T14:08:31.028Z,20.00
2022-09-25T14:11:00.888Z,20.02
2022-09-25T14:13:29.149Z,20.05
2022-09-25T14:15:59.746Z,20.08
2022-09-25T14:18:39.324Z,20.09
2022-09-25T14:21:09.582Z,20.11
2022-09-25T14:23:48.584Z,20.11
2022-09-25T14:26:26.762Z,20.08
2022-09-25T14:28:56.019Z,20.04
2022-09-25T14:31:34.988Z,20.00
2022-09-25T14:34:37.694Z,19.93
2022-09-25T14:37:14.182Z,19.88
2022-09-25T14:39:59.271Z,19.85
2022-09-25T14:43:05.771Z,19.84
2022-09-25T14:45:47.256Z,19.83
2022-09-25T14:48:24.108Z,19.85
2022-09-25T14:50:55.787Z,19.86
2022-09-25T14:53:31.471Z,19.89
2022-09-25T14:56:01.606Z,19.88
2022-09-25T14:58:32.594Z,19.89
2022-09-25T15:01:10.443Z,19.88
2022-09-25T15:03:41.905Z,19.87
2022-09-25T15:06:12.620Z,19.85
2022-09-25T15:08:42.356Z,19.85
2022-09-25T15:11:15.227Z,19.87
2022-09-25T15:13:42.492Z,19.85
2022-09-25T15:16:40.309Z,19.87
2022-09-25T15:19:16.715Z,19.86
2022-09-25T15:21:43.846Z,19.85
2022-09-25T15:24:21.563Z,19.85
2022-09-25T15:26:56.195Z,19.83
2022-09-25T15:29:23.885Z,19.80
2022-09-25T15:31:51.560Z,19.78
2022-09-25T15:34:30.254Z,19.76
2022-09-25T15:37:15.574Z,19.73
2022-09-25T15:39:43.321Z,19.69
2022-09-25T15:42:13.814Z,19.67
2022-09-25T15:44:40.504Z,19.62
2022-09-25T15:47:23.750Z,19.56
2022-09-25T15:49:50.239Z,19.52
2022-09-25T15:52:24.689Z,19.48
2022-09-25T15:54:51.184Z,19.42
2022-09-25T15:57:28.061Z,19.38
2022-09-25T16:00:13.418Z,19.34
2022-09-25T16:03:07.147Z,19.34
2022-09-25T16:05:36.042Z,19.32
2022-09-25T16:08:24.925Z,19.27
2022-09-25T16:11:10.081Z,19.22
2022-09-25T16:13:41.003Z,19.15
2022-09-25T16:16:29.848Z,19.08
2022-09-25T16:18:58.940Z,18.99
2022-09-25T16:21:30.570Z,18.89
2022-09-25T16:23:59.777Z,18.79
2022-09-25T16:26:39.242Z,18.68
2022-09-25T16:29:17.534Z,18.57
2022-09-25T16:31:45.411Z,18.45
2022-09-25T16:34:23.954Z,18.32
2022-09-25T16:36:51.348Z,18.21
2022-09-25T16:39:29.637Z,18.12
2022-09-25T16:41:56.622Z,18.00
2022-09-25T16:44:38.098Z,17.92
2022-09-25T16:47:20.153Z,17.85
2022-09-25T16:49:47.667Z,17.76
2022-09-25T17:04:46.418Z,17.20
2022-09-25T17:07:55.029Z,17.35
2022-09-25T17:13:37.572Z,17.50
2022-09-25T17:19:01.723Z,17.48
2022-09-25T17:22:02.549Z,17.47
2022-09-25T17:24:42.505Z,17.43
2022-09-25T17:27:14.339Z,17.41
2022-09-25T17:30:00.165Z,17.37
2022-09-25T17:39:36.593Z,17.25
2022-09-25T17:42:03.640Z,17.22
2022-09-25T17:44:30.618Z,17.18
2022-09-25T17:46:57.578Z,17.16
2022-09-25T17:49:25.111Z,17.13
2022-09-25T17:51:51.955Z,17.11
2022-09-25T17:54:18.934Z,17.09
2022-09-25T17:56:46.267Z,17.08
2022-09-25T17:59:13.837Z,17.07
2022-09-25T18:01:40.604Z,17.04
2022-09-25T18:04:18.058Z,17.04
2022-09-25T18:06:44.376Z,17.02
2022-09-25T18:09:10.861Z,16.99
2022-09-25T18:11:37.578Z,16.99
2022-09-25T18:14:03.901Z,16.97
2022-09-25T18:16:33.121Z,16.96
2022-09-25T18:19:18.558Z,16.92
2022-09-25T18:22:03.519Z,16.90
2022-09-25T18:24:30.041Z,16.86
2022-09-25T18:26:57.892Z,16.82
2022-09-25T18:29:25.139Z,16.77
2022-09-25T18:31:51.828Z,16.74
2022-09-25T18:34:18.258Z,16.70
2022-09-25T18:36:44.702Z,16.66
2022-09-25T18:39:13.883Z,16.63
2022-09-25T18:41:44.301Z,16.58
2022-09-25T18:44:13.233Z,16.53
2022-09-25T18:46:40.377Z,16.48
2022-09-25T18:49:07.768Z,16.42
2022-09-25T18:51:35.081Z,16.35
2022-09-25T18:54:02.185Z,16.28
2022-09-25T18:56:28.632Z,16.22
2022-09-25T18:58:55.039Z,16.15
2022-09-25T19:01:21.765Z,16.09
2022-09-25T19:03:52.484Z,16.03
2022-09-25T19:06:19.583Z,15.95
2022-09-25T19:08:55.803Z,15.89
2022-09-25T19:11:23.616Z,15.82
2022-09-25T19:13:50.107Z,15.75
2022-09-25T19:16:18.142Z,15.69
2022-09-25T19:18:45.127Z,15.63
2022-09-25T19:21:16.729Z,15.58
2022-09-25T19:23:43.758Z,15.52
2022-09-25T19:26:15.227Z,15.46
2022-09-25T19:28:42.535Z,15.40
2022-09-25T19:31:18.063Z,15.34
2022-09-25T19:33:45.344Z,15.30
2022-09-25T19:36:26.537Z,15.25
2022-09-25T19:38:54.135Z,15.20
2022-09-25T19:41:27.971Z,15.14
2022-09-25T19:43:59.049Z,15.09
2022-09-25T19:46:27.425Z,15.03
2022-09-25T19:48:54.081Z,14.97
2022-09-25T19:51:22.116Z,14.89
2022-09-25T19:53:48.800Z,14.82
2022-09-25T19:56:16.183Z,14.75
2022-09-25T19:58:43.348Z,14.68
2022-09-25T20:01:17.116Z,14.63
2022-09-25T20:03:44.036Z,14.54
2022-09-25T20:06:11.063Z,14.47
2022-09-25T20:08:38.759Z,14.43
2022-09-25T20:11:21.987Z,14.37
2022-09-25T20:13:50.752Z,14.32
2022-09-25T20:16:19.216Z,14.26
2022-09-25T20:18:50.679Z,14.22
2022-09-25T20:21:21.055Z,14.16
2022-09-25T20:23:58.625Z,14.12
2022-09-25T20:26:26.373Z,14.07
2022-09-25T20:29:01.545Z,14.02
2022-09-25T20:31:29.724Z,13.97
2022-09-25T20:33:56.194Z,13.91
2022-09-25T20:36:23.110Z,13.86
2022-09-25T20:38:54.500Z,13.81
2022-09-25T20:41:21.957Z,13.75
2022-09-25T20:43:50.896Z,13.71
2022-09-25T20:46:20.308Z,13.66
2022-09-25T20:48:48.817Z,13.63
2022-09-25T20:51:19.101Z,13.57
2022-09-25T20:53:59.831Z,13.53
2022-09-25T20:56:27.941Z,13.49
2022-09-25T20:58:55.814Z,13.44
2022-09-25T21:01:26.074Z,13.39
2022-09-25T21:03:53.863Z,13.35
2022-09-25T21:06:25.311Z,13.30
2022-09-25T21:09:03.539Z,13.28
2022-09-25T21:11:31.976Z,13.24
2022-09-25T21:14:02.423Z,13.21
2022-09-25T21:16:30.587Z,13.15
2022-09-25T21:19:00.264Z,13.12
2022-09-25T21:21:28.207Z,13.08
2022-09-25T21:23:56.977Z,13.05
2022-09-25T21:26:26.428Z,13.02
2022-09-25T21:28:54.880Z,13.00
2022-09-25T21:31:24.037Z,12.98
2022-09-25T21:33:52.842Z,12.95
2022-09-25T21:36:19.731Z,12.93
2022-09-25T21:38:46.119Z,12.92
2022-09-25T21:41:14.922Z,12.90
2022-09-25T21:43:42.248Z,12.88
2022-09-25T21:46:12.834Z,12.86
2022-09-25T21:48:41.153Z,12.84
2022-09-25T21:51:08.330Z,12.83
2022-09-25T21:53:34.859Z,12.81
2022-09-25T21:56:03.335Z,12.81
2022-09-25T21:58:30.159Z,12.80
2022-09-25T22:01:27.530Z,12.81
2022-09-25T22:03:56.457Z,12.80
2022-09-25T22:06:26.253Z,12.79
2022-09-25T22:08:54.945Z,12.79
2022-09-25T22:11:21.859Z,12.74
2022-09-25T22:13:50.127Z,12.73
2022-09-25T22:16:38.088Z,12.71
2022-09-25T22:19:17.103Z,12.70
2022-09-25T22:21:45.236Z,12.67
2022-09-25T22:24:12.184Z,12.64
2022-09-25T22:26:41.703Z,12.64
2022-09-25T22:29:08.876Z,12.62
2022-09-25T22:31:36.356Z,12.62
2022-09-25T22:34:05.523Z,12.64
2022-09-25T22:36:35.066Z,12.63
2022-09-25T22:39:02.568Z,12.62
2022-09-25T22:41:29.006Z,12.63
2022-09-25T22:43:58.411Z,12.63
2022-09-25T22:46:26.069Z,12.63
2022-09-25T22:48:52.487Z,12.61
2022-09-25T22:51:24.529Z,12.62
2022-09-25T22:53:52.503Z,12.60
2022-09-25T22:56:22.190Z,12.59
2022-09-25T22:58:51.594Z,12.58
2022-09-25T23:01:44.177Z,12.57
2022-09-25T23:04:14.088Z,12.55
2022-09-25T23:06:40.902Z,12.54
2022-09-25T23:09:10.987Z,12.53
2022-09-25T23:11:37.697Z,12.50
2022-09-25T23:14:11.263Z,12.51
2022-09-25T23:16:37.734Z,12.49
2022-09-25T23:19:04.423Z,12.47
2022-09-25T23:21:31.700Z,12.48
2022-09-25T23:24:00.412Z,12.48
2022-09-25T23:26:27.876Z,12.49
2022-09-25T23:28:54.277Z,12.50
2022-09-25T23:31:21.842Z,12.52
2022-09-25T23:33:48.388Z,12.55
2022-09-25T23:36:18.053Z,12.58
2022-09-25T23:38:45.210Z,12.60
2022-09-25T23:41:16.527Z,12.62
2022-09-25T23:43:43.674Z,12.63
2022-09-25T23:46:10.720Z,12.65
2022-09-25T23:48:37.219Z,12.66
2022-09-25T23:51:03.638Z,12.69
2022-09-25T23:53:30.120Z,12.70
2022-09-25T23:55:56.859Z,12.73
2022-09-25T23:58:23.260Z,12.76
